Tiempo atmosférico en la estación meteorológica de Vinaròs, Castelló/Castellón (110 m.)



Fecha
DESCASC
Temp. máxima en grados centígrados (hora)
DESCASC
Temp. mínima en grados centígrados (hora)
DESCASC
Temp. media en grados centígrados
DESCASC
Racha de viento máxima en m/sg (hora)
DESCASC
Velocidad máxima media en intervalos de 10 minutos(hora)
DESCASC
Precipitaciones diarias en mm
DESCASC
Precipitaciones de 00:00 a 06:00 en mm
DESCASC
Precipitaciones de 06:00 a 12:00 en mm
DESCASC
Precipitaciones de 12:00 a 18:00 en mm
DESCASC
Precipitaciones de 18:00 a 24:00 en mm
DESCASC
05-12-2019 12.5 (11:40) 10 (03:30) 11.3 8.06 (19:20) 4.72 (19:30) 9.8 1.2 0.5 0.5 7.6
04-12-2019 -- (--) -- (--) -- 13.33 (13:10) 8.33 (13:40) -- 11.5 52.3 16.1 --
03-12-2019 12.1 (13:50) 7.8 (00:00) 10 10 (22:00) 5.83 (22:40) 0.8 0 0 0 0.8
02-12-2019 15.9 (14:10) 8.4 (00:00) 12.1 6.11 (05:00) 3.89 (05:00) 0 0 0 0 0
01-12-2019 17.5 (15:10) 9.5 (00:00) 13.5 5 (15:30) 3.33 (11:50) 0 0 0 0 0
30-11-2019 19.1 (12:50) 8.7 (00:00) 13.9 5.56 (13:50) 3.06 (13:50) 0 0 0 0 0
29-11-2019 24.4 (15:00) 12.3 (00:00) 18.3 5.28 (16:50) 3.06 (00:10) 0 0 0 0 0
28-11-2019 22.3 (14:30) 9.8 (00:00) 16 7.22 (22:10) 4.17 (23:30) 0 0 0 0 0
27-11-2019 23.8 (13:40) 9.4 (00:00) 16.6 8.33 (10:20) 5 (10:20) 0 0 0 0 0
26-11-2019 -- (--) -- (--) -- -- (--) -- (--) -- -- -- 0 0.1
25-11-2019 -- (--) -- (--) -- -- (--) -- (--) -- -- -- -- --
24-11-2019 -- (--) -- (--) -- -- (--) -- (--) -- -- -- -- --
23-11-2019 -- (--) -- (--) -- -- (--) -- (--) -- -- -- -- --
22-11-2019 -- (--) -- (--) -- -- (--) -- (--) -- 0 0 -- --
21-11-2019 17.4 (13:20) 4.7 (00:00) 11 8.06 (14:00) 4.72 (14:00) 0 0 0 0 0
20-11-2019 16.9 (13:20) 3.8 (00:00) 10.3 5 (14:00) 2.78 (04:00) 0 0 0 0 0
19-11-2019 17.6 (13:30) 1.9 (00:00) 9.8 7.22 (13:10) 3.61 (13:00) 0 0 0 0 0
18-11-2019 17.1 (13:10) 5.9 (00:00) 11.5 10.83 (21:10) 5.83 (13:30) 0.1 0.1 0 0 0
17-11-2019 18.6 (15:00) 6.9 (00:00) 12.8 8.89 (07:10) 4.44 (07:10) 0.2 0 0 0.2 0
16-11-2019 17.6 (14:50) 2 (00:00) 9.8 6.67 (15:00) 4.17 (18:50) 0 0 0 0 0
15-11-2019 17.1 (12:50) 4.1 (00:00) 10.6 6.67 (17:50) 3.89 (01:40) 0 0 0 0 0
14-11-2019 15.6 (15:50) 5.2 (00:00) 10.4 14.72 (10:30) 6.67 (10:30) 0 0 0 0 0
13-11-2019 -- (--) -- (--) -- -- (--) -- (--) -- 0 1.8 -- 0
12-11-2019 19.9 (14:10) 11.2 (00:00) 15.5 14.44 (16:20) 7.78 (16:00) 0 0 0 0 0
11-11-2019 19.6 (13:00) 8.2 (05:40) 13.9 12.78 (20:50) 7.22 (01:40) 0 0 0 0 0
10-11-2019 17.2 (14:20) 9.8 (00:00) 13.5 15 (13:20) 8.89 (01:20) 0 0 0 0 0
09-11-2019 18.2 (11:20) 10.3 (00:00) 14.3 17.5 (03:30) 9.17 (00:10) 0 0 0 0 0
08-11-2019 19.1 (13:10) 7.6 (00:00) 13.4 17.5 (23:59) 10 (23:40) 0 0 0 0 0

Gráficas

Temp. máximas Temp. mínimas Temp. medias Precipitaciones Rachas de viento máximas Velocidades máximas media en intervalos de 10 minutos

Datos horarios

Fecha y hora oficial Temperatura (ºC) Velocidad del viento (km/h) Dirección del viento Racha (km/h) Dirección de racha Precipitación (mm) Presión (hPa) Tendencia (hPa) Humedad (%)
2019-12-07 23:00:00 7.7 8 Norte 12 Norte 0 -- -- 81
2019-12-07 22:00:00 7.6 6 Noroeste 12 Noroeste 0 -- -- 81
2019-12-07 21:00:00 8 7 Noroeste 10 Noroeste 0 -- -- 81
2019-12-07 20:00:00 8.7 5 Norte 8 Norte 0 -- -- 81
2019-12-07 19:00:00 9.8 4 Norte 5 Norte 0 -- -- 80
2019-12-07 18:00:00 11.2 0 Calma 6 Sur 0 -- -- 77
2019-12-07 17:00:00 13.8 6 Sur 13 Sur 0 -- -- 66
2019-12-07 16:00:00 15.8 8 Sur 13 Sur 0 -- -- 54
2019-12-07 15:00:00 16.8 3 Sudeste 11 Sur 0 -- -- 50
2019-12-07 14:00:00 16.5 4 Sur 12 Sudeste 0 -- -- 51
2019-12-07 13:00:00 16.7 6 Sudeste 14 Este 0 -- -- 51
2019-12-07 12:00:00 15 9 Nordeste 18 Norte 0 -- -- 53
2019-12-07 11:00:00 12.3 8 Norte 16 Norte 0 -- -- 65
2019-12-07 10:00:00 9.4 8 Norte 20 Norte 0 -- -- 81
2019-12-07 09:00:00 7.2 10 Norte 15 Norte 0 -- -- 81
2019-12-07 08:00:00 5.9 7 Norte 13 Noroeste 0 -- -- 81
2019-12-07 07:00:00 5.8 4 Noroeste 13 Noroeste 0 -- -- 81
2019-12-07 06:00:00 6.8 6 Noroeste 14 Noroeste 0 -- -- 81
2019-12-07 05:00:00 6.7 6 Norte 11 Noroeste 0 -- -- 81
2019-12-07 04:00:00 7 6 Noroeste 11 Noroeste 0 -- -- 81
2019-12-07 03:00:00 7.3 8 Noroeste 12 Noroeste 0 -- -- 81
2019-12-07 02:00:00 7.3 9 Norte 13 Noroeste 0 -- -- 81
2019-12-07 01:00:00 7.6 8 Noroeste 14 Noroeste 0 -- -- 81
2019-12-07 00:00:00 8.1 4 Noroeste 10 Noroeste 0 -- -- 81
2019-12-06 23:00:00 8.3 3 Norte 9 Norte 0 -- -- 81
2019-12-06 22:00:00 8.9 5 Norte 12 Noroeste 0 -- -- 81
2019-12-06 21:00:00 9.4 0 Calma 9 Noroeste 0 -- -- 81
2019-12-06 20:00:00 9.4 0 Calma -- -- 0 -- -- 81
2019-12-06 19:00:00 10.1 0 Calma 7 Noroeste 0 -- -- 80
2019-12-06 18:00:00 12 4 Sudeste 9 Sudeste 0 -- -- 76
2019-12-06 17:00:00 14.1 5 Sudeste 14 Sudeste 0 -- -- 63
2019-12-06 16:00:00 15.5 9 Sudeste 15 Sudeste 0 -- -- 54
2019-12-06 15:00:00 18.2 2 Sudeste 9 Sur 0 -- -- 47
2019-12-06 14:00:00 17.5 4 Sudeste 12 Este 0 -- -- 51
2019-12-06 13:00:00 17.8 3 Nordeste 13 Norte 0 -- -- 50
2019-12-06 12:00:00 15.4 9 Nordeste 13 Nordeste 0 -- -- 61
2019-12-06 11:00:00 13.9 9 Norte 13 Norte 0 -- -- 68
2019-12-06 10:00:00 11.6 8 Norte 15 Nordeste 0 -- -- 79
2019-12-06 09:00:00 11.2 8 Norte 14 Nordeste 0 -- -- 81
2019-12-06 08:00:00 10.7 9 Norte 13 Nordeste 0 -- -- 82
2019-12-06 07:00:00 10.9 7 Norte 13 Norte 0 -- -- 82
2019-12-06 06:00:00 10.8 7 Norte 16 Norte 0 -- -- 82
2019-12-06 05:00:00 10.6 10 Norte 18 Norte 0 -- -- 82
2019-12-06 04:00:00 10.5 9 Norte 14 Nordeste 0 -- -- 82
2019-12-06 03:00:00 10.7 9 Norte 17 Nordeste 0 -- -- 82
2019-12-06 02:00:00 10.9 9 Norte 18 Nordeste 0.1 -- -- 82
2019-12-06 01:00:00 10.7 11 Norte 18 Nordeste 1.2 -- -- 82
2019-12-06 00:00:00 10.6 9 Norte 18 Norte 1.6 -- -- 82
2019-12-05 23:00:00 10.5 12 Nordeste 20 Nordeste 0.8 -- -- 82
2019-12-05 22:00:00 10.4 12 Norte 23 Nordeste 1.9 -- -- 82
2019-12-05 21:00:00 10.5 14 Norte 24 Nordeste 1.6 -- -- 82
2019-12-05 20:00:00 10.6 15 Norte 29 Norte 1.2 -- -- 82
2019-12-05 19:00:00 10.7 14 Norte 24 Nordeste 0.5 -- -- 82
2019-12-05 18:00:00 10.7 14 Norte 27 Norte 0.3 -- -- 82
2019-12-05 17:00:00 11 14 Nordeste 23 Nordeste 0.2 -- -- 82
2019-12-05 16:00:00 11.3 13 Nordeste 23 Nordeste 0 -- -- 82
2019-12-05 15:00:00 11.6 13 Norte 26 Nordeste 0 -- -- 81
2019-12-05 14:00:00 12 12 Nordeste 21 Nordeste 0 -- -- 79
2019-12-05 13:00:00 11.7 13 Nordeste 23 Norte 0 -- -- 79
2019-12-05 12:00:00 12 13 Nordeste 22 Norte 0 -- -- 77
2019-12-05 11:00:00 12.2 12 Nordeste 20 Nordeste 0 -- -- 78
2019-12-05 10:00:00 11 10 Nordeste 20 Norte 0 -- -- 82
2019-12-05 09:00:00 10.7 11 Norte 20 Nordeste 0.2 -- -- 82
2019-12-05 08:00:00 10.4 12 Norte 19 Norte 0.2 -- -- 82
2019-12-05 07:00:00 10.3 11 Norte 19 Norte 0.1 -- -- 82
2019-12-05 06:00:00 10.8 11 Nordeste 20 Nordeste 0 -- -- 81
2019-12-05 05:00:00 10.3 8 Norte 23 Norte 0 -- -- 82
2019-12-05 04:00:00 10 11 Nordeste 28 Sudoeste 0 -- -- 82
2019-12-05 03:00:00 10.3 9 Norte 18 Norte 1 -- -- 82
2019-12-05 02:00:00 10.5 10 Nordeste 16 Nordeste 0.1 -- -- 82
2019-12-05 01:00:00 10.3 9 Norte -- -- -- -- -- 82
2019-12-05 00:00:00 10.5 12 Nordeste 21 Norte 0.1 -- -- 82
2019-12-04 23:00:00 10.3 12 Nordeste -- -- -- -- -- 82
2019-12-04 22:00:00 0 8 Norte -- -- -- -- -- 0
2019-12-04 21:00:00 10.1 15 Norte 27 Norte 0.7 -- -- 82
2019-12-04 20:00:00 10.3 15 Nordeste 24 Nordeste 0.5 -- -- 79
2019-12-04 19:00:00 10.2 11 Nordeste 30 Nordeste 0 -- -- 77
2019-12-04 18:00:00 10.5 18 Nordeste 42 Nordeste 0.7 -- -- 79
2019-12-04 17:00:00 9.6 17 Norte 32 Nordeste 2.6 -- -- 82
2019-12-04 16:00:00 9.8 14 Norte 27 Noroeste 3.8 -- -- 82
2019-12-04 15:00:00 9.6 14 Norte 34 Norte 4.9 -- -- 83
2019-12-04 14:00:00 9.9 24 Nordeste 48 Norte 2.1 -- -- 83
2019-12-04 13:00:00 10.5 24 Nordeste 44 Nordeste 2 -- -- 82
2019-12-04 12:00:00 9.5 17 Norte 30 Nordeste 4.9 -- -- 82
2019-12-04 11:00:00 9 9 Norte 23 Norte 8.8 -- -- 82
2019-12-04 10:00:00 8.8 9 Norte 23 Norte 8 -- -- 83
2019-12-04 09:00:00 8.9 10 Norte 37 Nordeste 19.1 -- -- 83
2019-12-04 08:00:00 8.6 17 Sudeste 40 Sudeste 6.3 -- -- 82
2019-12-04 07:00:00 7.9 15 Norte 42 Norte 5.2 -- -- 83
2019-12-04 06:00:00 8 19 Norte 39 Norte 5.2 -- -- 82
2019-12-04 05:00:00 7.7 24 Norte 36 Norte 3.5 -- -- 81
2019-12-04 04:00:00 8.1 23 Nordeste 37 Norte 0.7 -- -- 80
2019-12-04 03:00:00 7.9 23 Norte 40 Norte 0.6 -- -- 81
2019-12-04 02:00:00 8.1 22 Norte 38 Nordeste 1.5 -- -- 79
2019-12-04 01:00:00 8.6 24 Nordeste 41 Nordeste 0 -- -- 73
2019-12-04 00:00:00 8.2 20 Norte 36 Norte 0.2 -- -- 76
2019-12-03 23:00:00 8.2 19 Norte 36 Nordeste 0.5 -- -- 76
2019-12-03 22:00:00 8.6 19 Norte 36 Norte 0.1 -- -- 66
2019-12-03 21:00:00 9.7 17 Norte 28 Norte 0 -- -- 57
2019-12-03 20:00:00 9.3 17 Norte 28 Norte 0 -- -- 59
2019-12-03 19:00:00 9.3 14 Norte 26 Norte 0 -- -- 55
2019-12-03 18:00:00 9.5 12 Norte 23 Norte 0 -- -- 54
2019-12-03 17:00:00 10.1 13 Norte 25 Norte 0 -- -- 51
2019-12-03 16:00:00 10.6 17 Norte 33 Norte 0 -- -- 48
2019-12-03 15:00:00 10.8 19 Norte 29 Norte 0 -- -- 45
2019-12-03 14:00:00 11.9 16 Norte 27 Norte 0 -- -- 44
2019-12-03 13:00:00 11.7 14 Norte 26 Norte 0 -- -- 44
2019-12-03 12:00:00 11 14 Norte 26 Norte 0 -- -- 45
2019-12-03 11:00:00 10.8 13 Norte 22 Norte 0 -- -- 45
2019-12-03 10:00:00 9.8 12 Norte 24 Norte 0 -- -- 49
2019-12-03 09:00:00 9.3 9 Norte 24 Noroeste 0 -- -- 51
2019-12-03 08:00:00 8.8 12 Norte 25 Norte 0 -- -- 52
2019-12-03 07:00:00 8.7 12 Norte 22 Norte 0 -- -- 53
2019-12-03 06:00:00 8.7 9 Noroeste 17 Norte 0 -- -- 54
2019-12-03 05:00:00 9 10 Noroeste 17 Norte 0 -- -- 54
2019-12-03 04:00:00 9.1 10 Norte 18 Noroeste 0 -- -- 55
2019-12-03 03:00:00 9.2 9 Norte 16 Norte 0 -- -- 57
2019-12-03 02:00:00 9.1 5 Noroeste 13 Norte 0 -- -- 58
2019-12-03 01:00:00 10.6 6 Norte 12 Noroeste 0 -- -- 58
2019-12-03 00:00:00 11.1 6 Norte 10 Norte 0 -- -- 58
2019-12-02 23:00:00 11.3 5 Norte 8 Noroeste 0 -- -- 61
2019-12-02 22:00:00 11.3 0 Calma 8 Noroeste 0 -- -- 60
2019-12-02 21:00:00 11.8 2 Norte 8 Norte 0 -- -- 56
2019-12-02 20:00:00 12.2 5 Norte 12 Noroeste 0 -- -- 55
2019-12-02 19:00:00 12.4 6 Noroeste 13 Noroeste 0 -- -- 53
2019-12-02 18:00:00 12.9 5 Norte 14 Norte 0 -- -- 51
2019-12-02 17:00:00 13.6 7 Norte 15 Nordeste 0 -- -- 48
2019-12-02 16:00:00 14.2 9 Norte 15 Nordeste 0 -- -- 47
2019-12-02 15:00:00 14.9 8 Nordeste 17 Norte 0 -- -- 45
2019-12-02 14:00:00 15.2 9 Norte 18 Norte 0 -- -- 45
2019-12-02 13:00:00 13.6 10 Norte 18 Norte 0 -- -- 51
2019-12-02 12:00:00 13.1 12 Norte 19 Norte 0 -- -- 54
2019-12-02 11:00:00 12.8 8 Norte 20 Norte 0 -- -- 57
2019-12-02 10:00:00 12.4 11 Norte 20 Norte 0 -- -- 59
2019-12-02 09:00:00 11.1 12 Norte 21 Norte 0 -- -- 63
2019-12-02 08:00:00 10.7 10 Norte 22 Norte 0 -- -- 64
2019-12-02 07:00:00 10.5 9 Norte 18 Norte 0 -- -- 66
2019-12-02 06:00:00 10.2 12 Norte 22 Norte 0 -- -- 66
2019-12-02 05:00:00 10.2 14 Norte 22 Norte 0 -- -- 65
2019-12-02 04:00:00 9.2 9 Norte 17 Norte 0 -- -- 67
2019-12-02 03:00:00 9.2 9 Norte 17 Norte 0 -- -- 64
2019-12-02 02:00:00 9.7 7 Norte 14 Norte 0 -- -- 61
2019-12-02 01:00:00 10.4 9 Norte 17 Noroeste 0 -- -- 59
2019-12-02 00:00:00 10 9 Norte 16 Norte 0 -- -- 60
2019-12-01 23:00:00 10.7 10 Norte 17 Norte 0 -- -- 58
2019-12-01 22:00:00 10.5 8 Noroeste 13 Noroeste 0 -- -- 59
2019-12-01 21:00:00 10.3 5 Noroeste 10 Oeste 0 -- -- 61
2019-12-01 20:00:00 10.7 6 Noroeste 12 Noroeste 0 -- -- 56
2019-12-01 19:00:00 10.5 6 Norte 10 Noroeste 0 -- -- 55
2019-12-01 18:00:00 12.3 5 Norte 9 Norte 0 -- -- 48
2019-12-01 17:00:00 13.9 8 Norte 16 Norte 0 -- -- 41
2019-12-01 16:00:00 16.5 7 Nordeste 18 Norte 0 -- -- 38
2019-12-01 15:00:00 17.2 9 Nordeste 17 Norte 0 -- -- 38
2019-12-01 14:00:00 16.7 10 Norte 18 Nordeste 0 -- -- 38
2019-12-01 13:00:00 15.4 10 Norte 18 Norte 0 -- -- 42
2019-12-01 12:00:00 14.7 9 Norte 17 Norte 0 -- -- 46
2019-12-01 11:00:00 13.4 6 Norte 11 Norte 0 -- -- 58
2019-12-01 10:00:00 13 4 Noroeste 9 Norte 0 -- -- 62
2019-12-01 09:00:00 10.2 6 Noroeste 10 Norte 0 -- -- 73
2019-12-01 08:00:00 10 2 Noroeste 9 Norte 0 -- -- 72
2019-12-01 07:00:00 10 4 Noroeste 10 Oeste 0 -- -- 67
2019-12-01 06:00:00 10.3 5 Noroeste 9 Noroeste 0 -- -- 67
2019-12-01 05:00:00 10.6 4 Noroeste 11 Norte 0 -- -- 62
2019-12-01 04:00:00 9.8 4 Noroeste 9 Oeste 0 -- -- 77
2019-12-01 03:00:00 10.2 5 Noroeste 14 Oeste 0 -- -- 82
2019-12-01 02:00:00 11.1 8 Noroeste 14 Noroeste 0 -- -- 82
2019-12-01 01:00:00 12.6 5 Noroeste 15 Noroeste 0 -- -- 82
2019-12-01 00:00:00 11.9 9 Norte 19 Norte 0 -- -- 82
2019-11-30 23:00:00 11.1 5 Noroeste 11 Norte 0 -- -- 82
2019-11-30 22:00:00 11.1 6 Noroeste 10 Noroeste 0 -- -- 82
2019-11-30 21:00:00 10.3 0 Calma 8 Noroeste 0 -- -- 82
2019-11-30 20:00:00 10.6 0 Calma 3 Este 0 -- -- 82
2019-11-30 19:00:00 12.2 2 Este 4 Este 0 -- -- 82
2019-11-30 18:00:00 13.6 2 Noroeste 6 Sur 0 -- -- 79
2019-11-30 17:00:00 15.2 3 Este 11 Sudeste 0 -- -- 75
2019-11-30 16:00:00 15.6 6 Sudeste 14 Sudeste 0 -- -- 73
2019-11-30 15:00:00 16 10 Este 18 Este 0 -- -- 69
2019-11-30 14:00:00 17.1 10 Este 20 Este 0 -- -- 60
2019-11-30 13:00:00 18.4 9 Sudeste 17 Sudeste 0 -- -- 54
2019-11-30 12:00:00 17.3 9 Sudeste 14 Nordeste 0 -- -- 57
2019-11-30 11:00:00 16.7 3 Sudeste 7 Noroeste 0 -- -- 57
2019-11-30 10:00:00 12.9 5 Norte 14 Noroeste 0 -- -- 81
2019-11-30 09:00:00 9.5 8 Noroeste 13 Noroeste 0 -- -- 83
2019-11-30 08:00:00 8.7 6 Noroeste 12 Noroeste 0 -- -- 83
2019-11-30 07:00:00 10 8 Noroeste 12 Noroeste 0 -- -- 83
2019-11-30 06:00:00 10.2 6 Noroeste 10 Noroeste 0 -- -- 81
2019-11-30 05:00:00 10.7 0 Calma 8 Norte 0 -- -- 79
2019-11-30 04:00:00 10.6 3 Noroeste 9 Noroeste 0 -- -- 79
2019-11-30 03:00:00 11.1 5 Noroeste 10 Noroeste 0 -- -- 77
2019-11-30 02:00:00 11.6 5 Noroeste 9 Noroeste 0 -- -- 77
2019-11-30 01:00:00 12.7 6 Noroeste 10 Norte 0 -- -- 75
2019-11-30 00:00:00 12.4 4 Noroeste 8 Noroeste 0 -- -- 77
2019-11-29 23:00:00 12.4 3 Noroeste 7 Noroeste 0 -- -- 76
2019-11-29 22:00:00 13.8 4 Noroeste 9 Noroeste 0 -- -- 72
2019-11-29 21:00:00 13.2 4 Norte 6 Noroeste 0 -- -- 75
2019-11-29 20:00:00 14 4 Norte 5 Norte 0 -- -- 73
2019-11-29 19:00:00 15.4 0 Calma 3 Este 0 -- -- 67
2019-11-29 18:00:00 15.8 0 Calma 15 Sudeste 0 -- -- 64
2019-11-29 17:00:00 17.7 10 Sudeste 19 Sudeste 0 -- -- 52
2019-11-29 16:00:00 23 9 Noroeste 19 Noroeste 0 -- -- 35
2019-11-29 15:00:00 23 7 Oeste 16 Oeste 0 -- -- 35
2019-11-29 14:00:00 21.5 0 Calma 11 Este 0 -- -- 40
2019-11-29 13:00:00 21.5 4 Este 10 Este 0 -- -- 40
2019-11-29 12:00:00 21.1 7 Este 10 Este 0 -- -- 39
2019-11-29 11:00:00 18.3 0 Calma 10 Noroeste 0 -- -- 53
2019-11-29 10:00:00 16.7 4 Noroeste 6 Oeste 0 -- -- 57
2019-11-29 09:00:00 15 2 Noroeste 8 Noroeste 0 -- -- 57
2019-11-29 08:00:00 13.5 5 Norte 12 Noroeste 0 -- -- 57
2019-11-29 07:00:00 13.7 3 Norte 11 Sudeste 0 -- -- 55
2019-11-29 06:00:00 14.7 5 Sudeste 9 Sudoeste 0 -- -- 51
2019-11-29 05:00:00 13.7 3 Noroeste 9 Norte 0 -- -- 52
2019-11-29 04:00:00 14.3 0 Calma 12 Sur 0 -- -- 48
2019-11-29 03:00:00 14.9 7 Sur 12 Sudoeste 0 -- -- 46
2019-11-29 02:00:00 15.5 9 Sudoeste 12 Sudoeste 0 -- -- 45
2019-11-29 01:00:00 17.3 9 Oeste 18 Oeste 0 -- -- 39
2019-11-29 00:00:00 17.1 10 Oeste 25 Oeste 0 -- -- 39
2019-11-28 23:00:00 17 6 Noroeste 26 Oeste 0 -- -- 39
2019-11-28 22:00:00 14.9 6 Noroeste 19 Noroeste 0 -- -- 51
2019-11-28 21:00:00 14.3 5 Oeste 11 Noroeste 0 -- -- 54
2019-11-28 20:00:00 14.3 6 Noroeste 8 Noroeste 0 -- -- 57
2019-11-28 19:00:00 14.7 4 Noroeste 7 Noroeste 0 -- -- 57
2019-11-28 18:00:00 15.5 0 Calma 6 Este 0 -- -- 56
2019-11-28 17:00:00 17.8 0 Calma 13 Este 0 -- -- 45
2019-11-28 16:00:00 20.8 5 Sudeste 15 Sur 0 -- -- 31
2019-11-28 15:00:00 21.2 11 Sudeste 19 Sudeste 0 -- -- 29
2019-11-28 14:00:00 20.5 9 Sur 18 Sudeste 0 -- -- 32
2019-11-28 13:00:00 21.4 12 Sur 19 Sur 0 -- -- 31
2019-11-28 12:00:00 20.8 9 Sudeste 15 Sudeste 0 -- -- 33
2019-11-28 11:00:00 -- -- -- -- -- -- -- -- --
2019-11-28 10:00:00 -- -- -- -- -- -- -- -- --
2019-11-28 09:00:00 -- -- -- -- -- -- -- -- --
2019-11-28 08:00:00 -- -- -- -- -- -- -- -- --
2019-11-28 07:00:00 -- -- -- -- -- -- -- -- --
2019-11-28 06:00:00 -- -- -- -- -- -- -- -- --
2019-11-28 05:00:00 -- -- -- -- -- -- -- -- --
2019-11-28 04:00:00 -- -- -- -- -- -- -- -- --
2019-11-28 03:00:00 -- -- -- -- -- -- -- -- --
2019-11-28 02:00:00 -- -- -- -- -- -- -- -- --
2019-11-28 01:00:00 -- -- -- -- -- -- -- -- --
2019-11-28 00:00:00 -- -- -- -- -- -- -- -- --
2019-11-27 23:00:00 -- -- -- -- -- -- -- -- --
2019-11-27 22:00:00 -- -- -- -- -- -- -- -- --
2019-11-27 21:00:00 -- -- -- -- -- -- -- -- --
2019-11-27 20:00:00 -- -- -- -- -- -- -- -- --
2019-11-27 19:00:00 -- -- -- -- -- -- -- -- --
2019-11-27 18:00:00 -- -- -- -- -- -- -- -- --
2019-11-27 17:00:00 -- -- -- -- -- -- -- -- --
2019-11-27 16:00:00 -- -- -- -- -- -- -- -- --
2019-11-27 15:00:00 -- -- -- -- -- -- -- -- --
2019-11-27 14:00:00 -- -- -- -- -- -- -- -- --
2019-11-27 06:00:00 -- -- -- -- -- -- -- -- --
2019-11-27 05:00:00 -- -- -- -- -- -- -- -- --
2019-11-27 04:00:00 -- -- -- -- -- -- -- -- --
2019-11-27 03:00:00 -- -- -- -- -- -- -- -- --
2019-11-27 02:00:00 -- -- -- -- -- -- -- -- --
2019-11-27 01:00:00 -- -- -- -- -- -- -- -- --
2019-11-27 00:00:00 -- -- -- -- -- -- -- -- --
2019-11-26 23:00:00 -- -- -- -- -- -- -- -- --
2019-11-26 22:00:00 -- -- -- -- -- -- -- -- --
2019-11-26 21:00:00 -- -- -- -- -- -- -- -- --
2019-11-26 20:00:00 -- -- -- -- -- -- -- -- --
2019-11-26 19:00:00 -- -- -- -- -- -- -- -- --
2019-11-26 18:00:00 -- -- -- -- -- -- -- -- --
2019-11-26 17:00:00 -- -- -- -- -- -- -- -- --
2019-11-26 16:00:00 -- -- -- -- -- -- -- -- --
2019-11-26 15:00:00 -- -- -- -- -- -- -- -- --
2019-11-26 14:00:00 -- -- -- -- -- -- -- -- --
2019-11-26 13:00:00 -- -- -- -- -- -- -- -- --
2019-11-26 12:00:00 -- -- -- -- -- -- -- -- --
2019-11-26 11:00:00 -- -- -- -- -- -- -- -- --
2019-11-26 10:00:00 -- -- -- -- -- -- -- -- --
2019-11-26 09:00:00 -- -- -- -- -- -- -- -- --
2019-11-26 08:00:00 -- -- -- -- -- -- -- -- --
2019-11-26 07:00:00 -- -- -- -- -- -- -- -- --
2019-11-26 06:00:00 -- -- -- -- -- -- -- -- --
2019-11-26 05:00:00 -- -- -- -- -- -- -- -- --
2019-11-26 04:00:00 -- -- -- -- -- -- -- -- --
2019-11-26 03:00:00 -- -- -- -- -- -- -- -- --
2019-11-26 02:00:00 -- -- -- -- -- -- -- -- --
2019-11-26 01:00:00 -- -- -- -- -- -- -- -- --
2019-11-26 00:00:00 -- -- -- -- -- -- -- -- --
2019-11-25 23:00:00 -- -- -- -- -- -- -- -- --
2019-11-25 22:00:00 -- -- -- -- -- -- -- -- --
2019-11-25 21:00:00 -- -- -- -- -- -- -- -- --
2019-11-25 20:00:00 -- -- -- -- -- -- -- -- --
2019-11-25 19:00:00 -- -- -- -- -- -- -- -- --
2019-11-25 18:00:00 -- -- -- -- -- -- -- -- --
2019-11-25 17:00:00 -- -- -- -- -- -- -- -- --
2019-11-25 16:00:00 -- -- -- -- -- -- -- -- --
2019-11-25 15:00:00 -- -- -- -- -- -- -- -- --
2019-11-25 14:00:00 -- -- -- -- -- -- -- -- --
2019-11-25 13:00:00 -- -- -- -- -- -- -- -- --
2019-11-25 12:00:00 -- -- -- -- -- -- -- -- --
2019-11-25 11:00:00 -- -- -- -- -- -- -- -- --
2019-11-25 10:00:00 -- -- -- -- -- -- -- -- --
2019-11-25 09:00:00 -- -- -- -- -- -- -- -- --
2019-11-25 08:00:00 -- -- -- -- -- -- -- -- --
2019-11-25 07:00:00 -- -- -- -- -- -- -- -- --
2019-11-25 06:00:00 -- -- -- -- -- -- -- -- --
2019-11-25 05:00:00 -- -- -- -- -- -- -- -- --
2019-11-25 04:00:00 -- -- -- -- -- -- -- -- --
2019-11-25 03:00:00 -- -- -- -- -- -- -- -- --
2019-11-25 02:00:00 -- -- -- -- -- -- -- -- --
2019-11-25 01:00:00 -- -- -- -- -- -- -- -- --
2019-11-25 00:00:00 -- -- -- -- -- -- -- -- --
2019-11-24 23:00:00 -- -- -- -- -- -- -- -- --
2019-11-24 22:00:00 -- -- -- -- -- -- -- -- --
2019-11-24 21:00:00 -- -- -- -- -- -- -- -- --
2019-11-24 20:00:00 -- -- -- -- -- -- -- -- --
2019-11-24 19:00:00 -- -- -- -- -- -- -- -- --
2019-11-24 18:00:00 -- -- -- -- -- -- -- -- --
2019-11-24 17:00:00 -- -- -- -- -- -- -- -- --
2019-11-24 16:00:00 -- -- -- -- -- -- -- -- --
2019-11-24 15:00:00 -- -- -- -- -- -- -- -- --
2019-11-24 14:00:00 -- -- -- -- -- -- -- -- --
2019-11-24 13:00:00 -- -- -- -- -- -- -- -- --
2019-11-24 12:00:00 -- -- -- -- -- -- -- -- --
2019-11-24 11:00:00 -- -- -- -- -- -- -- -- --
2019-11-24 10:00:00 -- -- -- -- -- -- -- -- --
2019-11-24 09:00:00 -- -- -- -- -- -- -- -- --
2019-11-24 08:00:00 -- -- -- -- -- -- -- -- --
2019-11-24 07:00:00 -- -- -- -- -- -- -- -- --
2019-11-24 06:00:00 -- -- -- -- -- -- -- -- --
2019-11-24 05:00:00 -- -- -- -- -- -- -- -- --
2019-11-24 04:00:00 -- -- -- -- -- -- -- -- --
2019-11-24 03:00:00 -- -- -- -- -- -- -- -- --
2019-11-24 02:00:00 -- -- -- -- -- -- -- -- --
2019-11-24 01:00:00 -- -- -- -- -- -- -- -- --
2019-11-24 00:00:00 -- -- -- -- -- -- -- -- --
2019-11-23 23:00:00 -- -- -- -- -- -- -- -- --
2019-11-23 22:00:00 -- -- -- -- -- -- -- -- --
2019-11-23 21:00:00 -- -- -- -- -- -- -- -- --
2019-11-23 20:00:00 -- -- -- -- -- -- -- -- --
2019-11-23 19:00:00 -- -- -- -- -- -- -- -- --
2019-11-23 18:00:00 -- -- -- -- -- -- -- -- --
2019-11-23 17:00:00 -- -- -- -- -- -- -- -- --
2019-11-23 16:00:00 -- -- -- -- -- -- -- -- --
2019-11-23 15:00:00 -- -- -- -- -- -- -- -- --
2019-11-23 14:00:00 -- -- -- -- -- -- -- -- --
2019-11-23 13:00:00 -- -- -- -- -- -- -- -- --
2019-11-23 12:00:00 -- -- -- -- -- -- -- -- --
2019-11-23 11:00:00 -- -- -- -- -- -- -- -- --
2019-11-23 10:00:00 -- -- -- -- -- -- -- -- --
2019-11-23 09:00:00 -- -- -- -- -- -- -- -- --
2019-11-23 08:00:00 -- -- -- -- -- -- -- -- --
2019-11-23 07:00:00 -- -- -- -- -- -- -- -- --
2019-11-23 06:00:00 -- -- -- -- -- -- -- -- --
2019-11-23 05:00:00 -- -- -- -- -- -- -- -- --
2019-11-23 04:00:00 -- -- -- -- -- -- -- -- --
2019-11-23 03:00:00 -- -- -- -- -- -- -- -- --
2019-11-23 02:00:00 -- -- -- -- -- -- -- -- --
2019-11-23 01:00:00 -- -- -- -- -- -- -- -- --
2019-11-23 00:00:00 -- -- -- -- -- -- -- -- --
2019-11-22 23:00:00 -- -- -- -- -- -- -- -- --
2019-11-22 22:00:00 -- -- -- -- -- -- -- -- --
2019-11-22 21:00:00 -- -- -- -- -- -- -- -- --
2019-11-22 20:00:00 -- -- -- -- -- -- -- -- --
2019-11-22 19:00:00 -- -- -- -- -- -- -- -- --
2019-11-22 18:00:00 -- -- -- -- -- -- -- -- --
2019-11-22 17:00:00 -- -- -- -- -- -- -- -- --
2019-11-22 16:00:00 -- -- -- -- -- -- -- -- --
2019-11-22 15:00:00 -- -- -- -- -- -- -- -- --
2019-11-22 14:00:00 -- -- -- -- -- -- -- -- --
2019-11-22 13:00:00 -- -- -- -- -- -- -- -- --
2019-11-22 12:00:00 14.7 7 Sudeste 14 Sur 0 -- -- 54
2019-11-22 11:00:00 14.5 0 Calma 10 Oeste 0 -- -- 51
2019-11-22 10:00:00 10.5 4 Norte 11 Noroeste 0 -- -- 67
2019-11-22 09:00:00 9.2 9 Noroeste 17 Noroeste 0 -- -- 69
2019-11-22 08:00:00 6.4 5 Noroeste 12 Oeste 0 -- -- 81
2019-11-22 07:00:00 7.1 9 Noroeste 13 Oeste 0 -- -- 81
2019-11-22 06:00:00 7 10 Oeste 14 Oeste 0 -- -- 81
2019-11-22 05:00:00 7.3 9 Oeste 12 Noroeste 0 -- -- 81
2019-11-22 04:00:00 7.6 7 Noroeste 11 Noroeste 0 -- -- 80
2019-11-22 03:00:00 8.1 7 Noroeste 12 Oeste 0 -- -- 79
2019-11-22 02:00:00 9.2 8 Noroeste 12 Noroeste 0 -- -- 76
2019-11-22 01:00:00 10.6 7 Noroeste 11 Noroeste 0 -- -- 70
2019-11-22 00:00:00 10.6 7 Noroeste 12 Noroeste 0 -- -- 69
2019-11-21 23:00:00 10.5 7 Noroeste 12 Noroeste 0 -- -- 69
2019-11-21 22:00:00 10.9 6 Noroeste 10 Noroeste 0 -- -- 69
2019-11-21 21:00:00 10.9 5 Noroeste 10 Noroeste 0 -- -- 68
2019-11-21 20:00:00 10.6 6 Noroeste 9 Noroeste 0 -- -- 70
2019-11-21 19:00:00 10.5 3 Noroeste 6 Noroeste 0 -- -- 70
2019-11-21 18:00:00 12.4 3 Nordeste 7 Este 0 -- -- 58
2019-11-21 17:00:00 13.5 6 Sudeste 16 Sudeste 0 -- -- 51
2019-11-21 16:00:00 15.3 8 Sudeste 21 Sudeste 0 -- -- 43
2019-11-21 15:00:00 15.4 10 Sudeste 24 Sudeste 0 -- -- 45
2019-11-21 14:00:00 15.4 17 Sudeste 29 Sudeste 0 -- -- 38
2019-11-21 13:00:00 16.9 12 Sudeste 24 Este 0 -- -- 39
2019-11-21 12:00:00 16.9 10 Sudeste 20 Sudeste 0 -- -- 36
2019-11-21 11:00:00 14.5 4 Sudoeste 8 Oeste 0 -- -- 43
2019-11-21 10:00:00 10.2 4 Oeste 10 Noroeste 0 -- -- 67
2019-11-21 09:00:00 7.1 4 Noroeste 13 Noroeste 0 -- -- 78
2019-11-21 08:00:00 4.8 8 Noroeste 14 Noroeste 0 -- -- 84
2019-11-21 07:00:00 5.2 7 Noroeste 12 Noroeste 0 -- -- 84
2019-11-21 06:00:00 6.2 7 Noroeste 14 Noroeste 0 -- -- 84
2019-11-21 05:00:00 5.6 8 Noroeste 15 Noroeste 0 -- -- 84
2019-11-21 04:00:00 6 10 Noroeste 15 Noroeste 0 -- -- 84
2019-11-21 03:00:00 6.9 5 Norte 8 Norte 0 -- -- 81
2019-11-21 02:00:00 8.2 4 Oeste 10 Noroeste 0 -- -- 79
2019-11-21 01:00:00 8.7 4 Noroeste 11 Noroeste 0 -- -- 79
2019-11-21 00:00:00 8.6 5 Noroeste 10 Noroeste 0 -- -- 80
2019-11-20 23:00:00 8.4 5 Noroeste 10 Noroeste 0 -- -- 81
2019-11-20 22:00:00 7.9 6 Norte 9 Norte 0 -- -- 81
2019-11-20 21:00:00 7.9 5 Noroeste 10 Noroeste 0 -- -- 81
2019-11-20 20:00:00 8 6 Noroeste 8 Norte 0 -- -- 79
2019-11-20 19:00:00 7.8 4 Noroeste 6 Norte 0 -- -- 79
2019-11-20 18:00:00 10.1 0 Calma 10 Este 0 -- -- 70
2019-11-20 17:00:00 13.3 6 Sudeste 15 Este 0 -- -- 53
2019-11-20 16:00:00 15.7 7 Este 16 Este 0 -- -- 43
2019-11-20 15:00:00 15.7 6 Este 18 Este 0 -- -- 45
2019-11-20 14:00:00 15.2 8 Este 18 Este 0 -- -- 48
2019-11-20 13:00:00 16.6 0 Calma 9 Norte 0 -- -- 45
2019-11-20 12:00:00 14.2 3 Norte 13 Nordeste 0 -- -- 45
2019-11-20 11:00:00 12.7 6 Norte 14 Noroeste 0 -- -- 48
2019-11-20 10:00:00 9.1 7 Norte 13 Noroeste 0 -- -- 60
2019-11-20 09:00:00 6.5 6 Norte 11 Noroeste 0 -- -- 69
2019-11-20 08:00:00 4.8 7 Noroeste 10 Noroeste 0 -- -- 76
2019-11-20 07:00:00 4.1 7 Noroeste 13 Noroeste 0 -- -- 76
2019-11-20 06:00:00 4.5 8 Noroeste 12 Noroeste 0 -- -- 71
2019-11-20 05:00:00 4.4 7 Noroeste 15 Oeste 0 -- -- 72
2019-11-20 04:00:00 5.2 10 Noroeste 18 Noroeste 0 -- -- 67
2019-11-20 03:00:00 4.1 10 Norte 13 Noroeste 0 -- -- 71
2019-11-20 02:00:00 4.5 7 Noroeste 13 Noroeste 0 -- -- 71
2019-11-20 01:00:00 4.2 6 Noroeste 13 Noroeste 0 -- -- 72
2019-11-20 00:00:00 4.8 10 Noroeste 13 Noroeste 0 -- -- 74
2019-11-19 23:00:00 4.6 8 Noroeste 11 Noroeste 0 -- -- 74
2019-11-19 22:00:00 5.3 6 Noroeste 11 Noroeste 0 -- -- 75
2019-11-19 21:00:00 5.6 5 Noroeste 12 Noroeste 0 -- -- 75
2019-11-19 20:00:00 5.9 8 Oeste 12 Oeste 0 -- -- 74
2019-11-19 19:00:00 7.1 3 Noroeste 6 Oeste 0 -- -- 68
2019-11-19 18:00:00 9.3 0 Calma 13 Sudeste 0 -- -- 56
2019-11-19 17:00:00 13.1 6 Sudeste 16 Sudeste 0 -- -- 40
2019-11-19 16:00:00 14.6 9 Sudeste 20 Este 0 -- -- 38
2019-11-19 15:00:00 14.5 12 Este 18 Este 0 -- -- 35
2019-11-19 14:00:00 17.1 4 Noroeste 26 Oeste 0 -- -- 29
2019-11-19 13:00:00 16.1 13 Oeste 23 Oeste 0 -- -- 31
2019-11-19 12:00:00 14.2 5 Este 15 Este 0 -- -- 35
2019-11-19 11:00:00 13.3 4 Este 11 Norte 0 -- -- 36
2019-11-19 10:00:00 11.6 3 Noroeste 9 Noroeste 0 -- -- 43
2019-11-19 09:00:00 7.5 4 Norte 10 Noroeste 0 -- -- 58
2019-11-19 08:00:00 2.6 8 Noroeste 12 Noroeste 0 -- -- 72
2019-11-19 07:00:00 2.6 4 Norte 8 Norte 0 -- -- 71
2019-11-19 06:00:00 3.2 5 Noroeste 10 Norte 0 -- -- 67
2019-11-19 05:00:00 3.8 4 Noroeste 12 Noroeste 0 -- -- 65
2019-11-19 04:00:00 4.3 5 Noroeste 10 Noroeste 0 -- -- 64
2019-11-19 03:00:00 3.3 6 Noroeste 12 Norte 0 -- -- 67
2019-11-19 02:00:00 3.9 5 Noroeste 9 Oeste 0 -- -- 64
2019-11-19 01:00:00 5.9 5 Noroeste 13 Noroeste 0 -- -- 50
2019-11-19 00:00:00 8.1 8 Noroeste 19 Noroeste 0 -- -- 43
2019-11-18 23:00:00 9.5 13 Noroeste 31 Oeste 0 -- -- 39
2019-11-18 22:00:00 9.8 19 Noroeste 39 Noroeste 0 -- -- 40
2019-11-18 21:00:00 9.9 16 Oeste 30 Noroeste 0 -- -- 40
2019-11-18 20:00:00 10.1 10 Noroeste 34 Noroeste 0 -- -- 40
2019-11-18 19:00:00 10.4 19 Oeste 37 Noroeste 0 -- -- 40
2019-11-18 18:00:00 10.5 12 Noroeste 23 Noroeste 0 -- -- 41
2019-11-18 17:00:00 12.6 10 Noroeste 22 Noroeste 0 -- -- 37
2019-11-18 16:00:00 12.8 14 Oeste 32 Noroeste 0 -- -- 36
2019-11-18 15:00:00 14 16 Noroeste 32 Noroeste 0 -- -- 34
2019-11-18 14:00:00 13.5 16 Noroeste 33 Noroeste 0 -- -- 33
2019-11-18 13:00:00 15.2 11 Norte 23 Norte 0 -- -- 31
2019-11-18 12:00:00 15.1 10 Norte 27 Noroeste 0 -- -- 31
2019-11-18 11:00:00 14.7 13 Noroeste 28 Noroeste 0 -- -- 33
2019-11-18 10:00:00 12.7 6 Noroeste 18 Norte 0 -- -- 44
2019-11-18 09:00:00 9.9 2 Noroeste 10 Noroeste 0 -- -- 61
2019-11-18 08:00:00 7 6 Norte 13 Norte 0 -- -- 74
2019-11-18 07:00:00 6.5 3 Norte 11 Norte 0 -- -- 81
2019-11-18 06:00:00 7.1 7 Noroeste 13 Noroeste 0 -- -- 83
2019-11-18 05:00:00 6.3 5 Noroeste 11 Noroeste 0 -- -- 83
2019-11-18 04:00:00 7.1 6 Noroeste 12 Noroeste 0 -- -- 81
2019-11-18 03:00:00 8.8 8 Noroeste 11 Norte 0 -- -- 78
2019-11-18 02:00:00 10.3 5 Noroeste 10 Noroeste 0 -- -- 77
2019-11-18 01:00:00 10.3 4 Noroeste 13 Oeste 0.1 -- -- 78
2019-11-18 00:00:00 10 4 Oeste 10 Noroeste 0 -- -- 79
2019-11-17 23:00:00 10.3 5 Noroeste 10 Norte 0 -- -- 72
2019-11-17 22:00:00 10.5 5 Noroeste 10 Noroeste 0 -- -- 72
2019-11-17 21:00:00 10.3 6 Noroeste 10 Noroeste 0 -- -- 73
2019-11-17 20:00:00 10.9 6 Norte 9 Norte 0 -- -- 72
2019-11-17 19:00:00 12 6 Norte 11 Noroeste 0 -- -- 66
2019-11-17 18:00:00 12.7 4 Noroeste 22 Noroeste 0.2 -- -- 62
2019-11-17 17:00:00 15.2 3 Este 13 Sudeste 0 -- -- 38
2019-11-17 16:00:00 16.1 8 Sudeste 19 Sudeste 0 -- -- 36
2019-11-17 15:00:00 16.5 10 Sudeste 24 Sudeste 0 -- -- 35
2019-11-17 14:00:00 17 11 Sudeste 19 Este 0 -- -- 32
2019-11-17 13:00:00 17.3 5 Sur 17 Sur 0 -- -- 33
2019-11-17 12:00:00 14.1 7 Sur 13 Sur 0 -- -- 38
2019-11-17 11:00:00 12.3 0 Calma 14 Sudoeste 0 -- -- 40
2019-11-17 10:00:00 12.2 2 Sudoeste 12 Sudoeste 0 -- -- 39
2019-11-17 09:00:00 11.8 2 Sudoeste 11 Oeste 0 -- -- 39
2019-11-17 08:00:00 10.8 11 Oeste 32 Sudoeste 0 -- -- 40
2019-11-17 07:00:00 9.4 13 Sudoeste 24 Sudoeste 0 -- -- 40
2019-11-17 06:00:00 9.4 9 Oeste 19 Oeste 0 -- -- 42
2019-11-17 05:00:00 9.9 12 Oeste 23 Sudoeste 0 -- -- 40
2019-11-17 04:00:00 9.7 11 Oeste 19 Sudoeste 0 -- -- 42
2019-11-17 03:00:00 9.6 10 Sudoeste 20 Sudoeste 0 -- -- 43
2019-11-17 02:00:00 9.7 12 Sudoeste 19 Sudoeste 0 -- -- 45
2019-11-17 01:00:00 8.4 8 Oeste 14 Oeste 0 -- -- 50
2019-11-17 00:00:00 7 6 Noroeste 14 Sudoeste 0 -- -- 52
2019-11-16 23:00:00 6.5 2 Norte 11 Norte 0 -- -- 52
2019-11-16 22:00:00 9 7 Sudoeste 22 Sudoeste 0 -- -- 40
2019-11-16 21:00:00 9.9 12 Sudoeste 21 Sudoeste 0 -- -- 40
2019-11-16 20:00:00 10.8 11 Sudoeste 22 Sudoeste 0 -- -- 39
2019-11-16 19:00:00 11.2 14 Oeste 24 Oeste 0 -- -- 39
2019-11-16 18:00:00 11.5 11 Oeste 21 Noroeste 0 -- -- 37
2019-11-16 17:00:00 14.5 6 Noroeste 18 Noroeste 0 -- -- 29
2019-11-16 16:00:00 16.3 8 Noroeste 24 Oeste 0 -- -- 27
2019-11-16 15:00:00 16.7 14 Oeste 24 Noroeste 0 -- -- 27
2019-11-16 14:00:00 15.2 8 Nordeste 22 Nordeste 0 -- -- 29
2019-11-16 13:00:00 14.6 10 Norte 20 Norte 0 -- -- 30
2019-11-16 12:00:00 14.5 3 Norte 13 Nordeste 0 -- -- 34
2019-11-16 11:00:00 12.7 4 Nordeste 15 Nordeste 0 -- -- 39
2019-11-16 10:00:00 10.4 7 Norte 15 Norte 0 -- -- 47
2019-11-16 09:00:00 7.2 4 Noroeste 9 Norte 0 -- -- 64
2019-11-16 08:00:00 3.1 5 Noroeste 11 Noroeste 0 -- -- 75
2019-11-16 07:00:00 3.1 6 Norte 11 Noroeste 0 -- -- 75
2019-11-16 06:00:00 4.2 8 Noroeste 14 Noroeste 0 -- -- 71
2019-11-16 05:00:00 3.8 6 Noroeste 16 Noroeste 0 -- -- 74
2019-11-16 04:00:00 3.5 0 Calma 10 Sudoeste 0 -- -- 71
2019-11-16 03:00:00 3.6 0 Calma 9 Norte 0 -- -- 74
2019-11-16 02:00:00 4.8 0 Calma 12 Noroeste 0 -- -- 69
2019-11-16 01:00:00 5.5 6 Noroeste 12 Norte 0 -- -- 67
2019-11-16 00:00:00 7.2 10 Oeste 21 Oeste 0 -- -- 59
2019-11-15 23:00:00 6.7 10 Oeste 17 Oeste 0 -- -- 64
2019-11-15 22:00:00 6.1 2 Noroeste 10 Norte 0 -- -- 67
2019-11-15 21:00:00 6.4 0 Calma 9 Oeste 0 -- -- 64
2019-11-15 20:00:00 8.6 6 Noroeste 10 Noroeste 0 -- -- 56
2019-11-15 19:00:00 9.7 0 Calma 20 Noroeste 0 -- -- 49
2019-11-15 18:00:00 11.6 13 Oeste 24 Noroeste 0 -- -- 45
2019-11-15 17:00:00 11.9 2 Este 18 Sur 0 -- -- 42
2019-11-15 16:00:00 12.9 11 Sur 20 Sur 0 -- -- 37
2019-11-15 15:00:00 13.7 3 Sur 9 Noroeste 0 -- -- 33
2019-11-15 14:00:00 14.7 3 Noroeste 15 Oeste 0 -- -- 32
2019-11-15 13:00:00 15.9 5 Noroeste 24 Oeste 0 -- -- 29
2019-11-15 12:00:00 14.7 8 Noroeste 22 Noroeste 0 -- -- 31
2019-11-15 11:00:00 14.1 13 Oeste 21 Oeste 0 -- -- 35
2019-11-15 10:00:00 11.2 0 Calma 8 Nordeste 0 -- -- 43
2019-11-15 09:00:00 9.4 4 Noroeste 10 Noroeste 0 -- -- 56
2019-11-15 08:00:00 4.5 5 Noroeste 11 Noroeste 0 -- -- 71
2019-11-15 07:00:00 5.9 4 Norte 12 Noroeste 0 -- -- 68
2019-11-15 06:00:00 6.4 8 Noroeste 16 Norte 0 -- -- 67
2019-11-15 05:00:00 6.5 10 Norte 17 Norte 0 -- -- 64
2019-11-15 04:00:00 6.7 8 Noroeste 18 Noroeste 0 -- -- 64
2019-11-15 03:00:00 7.8 7 Noroeste 18 Noroeste 0 -- -- 59
2019-11-15 02:00:00 6.6 8 Norte 22 Norte 0 -- -- 62
2019-11-15 01:00:00 5.9 8 Noroeste 14 Noroeste 0 -- -- 65
2019-11-15 00:00:00 6.1 8 Noroeste 13 Noroeste 0 -- -- 66
2019-11-14 23:00:00 5.9 7 Noroeste 12 Noroeste 0 -- -- 63
2019-11-14 22:00:00 6.5 8 Noroeste 15 Noroeste 0 -- -- 58
2019-11-14 21:00:00 6 3 Sudoeste 14 Oeste 0 -- -- 62
2019-11-14 20:00:00 7.2 9 Oeste 16 Oeste 0 -- -- 59
2019-11-14 19:00:00 7.3 3 Norte 12 Sur 0 -- -- 62
2019-11-14 18:00:00 9.3 0 Calma 14 Oeste 0 -- -- 49
2019-11-14 17:00:00 12.9 4 Oeste 9 Oeste 0 -- -- 39
2019-11-14 16:00:00 13.5 5 Sudoeste 10 Oeste 0 -- -- 36
2019-11-14 15:00:00 13.4 8 Noroeste 20 Norte 0 -- -- 40
2019-11-14 14:00:00 12.4 4 Norte 24 Noroeste 0 -- -- 43
2019-11-14 13:00:00 13 10 Oeste 24 Oeste 0 -- -- 40
2019-11-14 12:00:00 11.9 8 Noroeste 32 Noroeste 0 -- -- 45
2019-11-14 11:00:00 10.9 17 Noroeste 53 Noroeste 0 -- -- 47
2019-11-14 10:00:00 12.5 14 Noroeste 32 Oeste 0 -- -- 58
2019-11-14 09:00:00 11.1 4 Noroeste 8 Noroeste 0 -- -- 67
2019-11-14 08:00:00 9.9 4 Norte 9 Oeste 0 -- -- 74
2019-11-14 07:00:00 10 3 Noroeste 16 Sudoeste 0 -- -- 69
2019-11-14 06:00:00 10 6 Noroeste 12 Oeste 0 -- -- 72
2019-11-14 05:00:00 10.4 7 Oeste 12 Oeste 0 -- -- 72
2019-11-14 04:00:00 11.5 6 Norte 12 Noroeste 0 -- -- 62
2019-11-14 03:00:00 11.9 6 Norte 12 Oeste 0 -- -- 59
2019-11-14 02:00:00 10.9 6 Oeste 13 Noroeste 0 -- -- 64
2019-11-14 01:00:00 9.8 5 Noroeste 9 Noroeste 0 -- -- 66
2019-11-14 00:00:00 9 7 Oeste 10 Oeste 0 -- -- 69
2019-11-13 23:00:00 9.9 7 Noroeste 13 Noroeste 0 -- -- 65
2019-11-13 22:00:00 10.6 3 Oeste 10 Oeste 0 -- -- 58
2019-11-13 21:00:00 10.9 0 Calma 12 Sudoeste 0 -- -- 54
2019-11-13 20:00:00 12.2 3 Oeste 21 Oeste 0 -- -- 45
2019-11-13 19:00:00 14.4 9 Oeste 31 Sur 0 -- -- 38
2019-11-13 18:00:00 14.7 14 Noroeste -- -- -- -- -- 39
2019-11-13 17:00:00 -- -- -- -- -- -- -- -- --
2019-11-13 16:00:00 -- -- -- -- -- -- -- -- --
2019-11-13 15:00:00 -- -- -- -- -- -- -- -- --
2019-11-13 14:00:00 -- -- -- -- -- -- -- -- --
2019-11-13 13:00:00 17 11 Noroeste 35 Noroeste 0 -- -- 46
2019-11-13 12:00:00 13.2 13 Norte 26 Norte 0 -- -- 73
2019-11-13 11:00:00 0 0 Calma 22 Norte 0.1 -- -- 0
2019-11-13 10:00:00 11.1 8 Norte 15 Norte 0.1 -- -- 83
2019-11-13 09:00:00 10.7 6 Norte 12 Noroeste 0.6 -- -- 84
2019-11-13 08:00:00 10.3 5 Norte 10 Norte 0.7 -- -- 83
2019-11-13 07:00:00 10.4 5 Noroeste 9 Noroeste 0.3 -- -- 81
2019-11-13 06:00:00 12 5 Noroeste 9 Noroeste 0 -- -- 59
2019-11-13 05:00:00 12.2 3 Norte 8 Sudoeste 0 -- -- 53
2019-11-13 04:00:00 12.7 4 Sur 6 Oeste 0 -- -- 52
2019-11-13 03:00:00 11.9 3 Sur 12 Noroeste 0 -- -- 53
2019-11-13 02:00:00 11.9 2 Oeste 12 Sudoeste 0 -- -- 48
2019-11-13 01:00:00 14.5 6 Oeste 15 Oeste 0 -- -- 42
2019-11-13 00:00:00 13.5 7 Sudoeste 15 Sudoeste 0 -- -- 42
2019-11-12 23:00:00 14.2 3 Nordeste 19 Norte 0 -- -- 40
2019-11-12 22:00:00 14.5 4 Norte 23 Sudoeste 0 -- -- 40
2019-11-12 21:00:00 14.9 12 Oeste 36 Noroeste 0 -- -- 40
2019-11-12 20:00:00 14 5 Oeste 28 Noroeste 0 -- -- 41
2019-11-12 19:00:00 14.9 7 Noroeste 27 Noroeste 0 -- -- 38
2019-11-12 18:00:00 15.5 21 Noroeste 39 Noroeste 0 -- -- 37
2019-11-12 17:00:00 15.6 9 Noroeste 52 Noroeste 0 -- -- 37
2019-11-12 16:00:00 17.4 28 Noroeste 50 Noroeste 0 -- -- 35
2019-11-12 15:00:00 17.9 5 Oeste 36 Oeste 0 -- -- 34
2019-11-12 14:00:00 19.7 4 Noroeste 39 Norte 0 -- -- 34
2019-11-12 13:00:00 18.5 21 Noroeste 42 Noroeste 0 -- -- 35
2019-11-12 12:00:00 18 19 Noroeste 36 Noroeste 0 -- -- 37
2019-11-12 11:00:00 17.8 14 Noroeste 43 Noroeste 0 -- -- 39
2019-11-12 10:00:00 15.9 18 Noroeste 34 Noroeste 0 -- -- 41
2019-11-12 09:00:00 13.7 15 Noroeste 34 Noroeste 0 -- -- 43
2019-11-12 08:00:00 11.7 10 Noroeste 36 Norte 0 -- -- 46
2019-11-12 07:00:00 11.3 11 Noroeste 30 Noroeste 0 -- -- 45
2019-11-12 06:00:00 11.8 18 Noroeste 37 Noroeste 0 -- -- 43
2019-11-12 05:00:00 11.8 18 Noroeste 43 Noroeste 0 -- -- 43
2019-11-12 04:00:00 11.7 21 Noroeste 43 Noroeste 0 -- -- 44
2019-11-12 03:00:00 11.9 25 Noroeste 52 Noroeste 0 -- -- 43
2019-11-12 02:00:00 12.2 24 Noroeste 44 Noroeste 0 -- -- 43
2019-11-12 01:00:00 12.3 22 Noroeste 48 Norte 0 -- -- 42
2019-11-12 00:00:00 12.6 18 Noroeste 40 Noroeste 0 -- -- 41
2019-11-11 23:00:00 12.8 15 Noroeste 35 Norte 0 -- -- 42
2019-11-11 22:00:00 13.2 17 Noroeste 42 Noroeste 0 -- -- 40
2019-11-11 21:00:00 13.9 21 Noroeste 46 Norte 0 -- -- 41
2019-11-11 20:00:00 14.2 13 Noroeste 36 Noroeste 0 -- -- 43
2019-11-11 19:00:00 14.9 7 Noroeste 16 Noroeste 0 -- -- 45
2019-11-11 18:00:00 15.2 10 Norte 27 Noroeste 0 -- -- 47
2019-11-11 17:00:00 15.5 12 Noroeste 26 Noroeste 0 -- -- 43
2019-11-11 16:00:00 15.9 17 Noroeste 35 Noroeste 0 -- -- 39
2019-11-11 15:00:00 18.2 14 Noroeste 28 Noroeste 0 -- -- 34
2019-11-11 14:00:00 19.5 12 Noroeste 21 Oeste 0 -- -- 32
2019-11-11 13:00:00 19 9 Oeste 19 Oeste 0 -- -- 32
2019-11-11 12:00:00 17.7 5 Norte 18 Noroeste 0 -- -- 33
2019-11-11 11:00:00 17.7 3 Noroeste 11 Noroeste 0 -- -- 37
2019-11-11 10:00:00 13 0 Calma 12 Norte 0 -- -- 48
2019-11-11 09:00:00 11.4 5 Norte 22 Noroeste 0 -- -- 46
2019-11-11 08:00:00 9.8 6 Noroeste 14 Noroeste 0 -- -- 49
2019-11-11 07:00:00 9.2 7 Noroeste 16 Norte 0 -- -- 49
2019-11-11 06:00:00 8.8 9 Noroeste 16 Noroeste 0 -- -- 50
2019-11-11 05:00:00 9.4 8 Noroeste 26 Noroeste 0 -- -- 47
2019-11-11 04:00:00 9.2 12 Noroeste 38 Noroeste 0 -- -- 47
2019-11-11 03:00:00 9.6 14 Noroeste 27 Noroeste 0 -- -- 46
2019-11-11 02:00:00 10.1 21 Noroeste 44 Noroeste 0 -- -- 46
2019-11-11 01:00:00 10.2 19 Noroeste 39 Oeste 0 -- -- 46
2019-11-11 00:00:00 10.1 15 Noroeste 31 Noroeste 0 -- -- 45
2019-11-10 23:00:00 10.1 15 Noroeste 35 Norte 0 -- -- 44
2019-11-10 22:00:00 10.6 14 Norte 46 Norte 0 -- -- 43
2019-11-10 21:00:00 10.9 16 Norte 48 Noroeste 0 -- -- 43
2019-11-10 20:00:00 11.4 22 Noroeste 44 Noroeste 0 -- -- 43
2019-11-10 19:00:00 10.8 7 Norte 30 Noroeste 0 -- -- 44
2019-11-10 18:00:00 11.5 7 Noroeste 39 Noroeste 0 -- -- 42
2019-11-10 17:00:00 13.3 17 Norte 39 Norte 0 -- -- 39
2019-11-10 16:00:00 13.3 11 Noroeste 46 Noroeste 0 -- -- 40
2019-11-10 15:00:00 14 26 Noroeste 48 Noroeste 0 -- -- 37
2019-11-10 14:00:00 16 19 Norte 54 Noroeste 0 -- -- 35
2019-11-10 13:00:00 16.3 18 Norte 42 Noroeste 0 -- -- 35
2019-11-10 12:00:00 15.7 14 Noroeste 42 Noroeste 0 -- -- 36
2019-11-10 11:00:00 16.1 14 Norte 35 Norte 0 -- -- 36
2019-11-10 10:00:00 14.8 10 Noroeste 32 Noroeste 0 -- -- 39
2019-11-10 09:00:00 12.9 17 Noroeste 33 Noroeste 0 -- -- 43
2019-11-10 08:00:00 10.6 21 Noroeste 49 Noroeste 0 -- -- 47
2019-11-10 07:00:00 11.2 21 Noroeste 48 Noroeste 0 -- -- 46
2019-11-10 06:00:00 11.2 10 Noroeste 31 Norte 0 -- -- 46
2019-11-10 05:00:00 11.4 10 Noroeste 43 Noroeste 0 -- -- 47
2019-11-10 04:00:00 11.6 18 Noroeste 45 Noroeste 0 -- -- 49
2019-11-10 03:00:00 11.2 14 Noroeste 31 Noroeste 0 -- -- 54
2019-11-10 02:00:00 11.2 22 Noroeste 54 Noroeste 0 -- -- 52
2019-11-10 01:00:00 12.8 6 Noroeste 13 Oeste 0 -- -- 54
2019-11-10 00:00:00 10.9 6 Norte 14 Noroeste 0 -- -- 63
2019-11-09 23:00:00 10.8 0 Calma 10 Noroeste 0 -- -- 63
2019-11-09 22:00:00 10.6 3 Noroeste 11 Norte 0 -- -- 62
2019-11-09 21:00:00 10.6 4 Norte 10 Noroeste 0 -- -- 62
2019-11-09 20:00:00 11.1 5 Noroeste 9 Noroeste 0 -- -- 61
2019-11-09 19:00:00 11.2 2 Norte 6 Norte 0 -- -- 61
2019-11-09 18:00:00 13.2 0 Calma 9 Sur 0 -- -- 51
2019-11-09 17:00:00 15.5 2 Noroeste 21 Noroeste 0 -- -- 42
2019-11-09 16:00:00 16 18 Noroeste 30 Noroeste 0 -- -- 39
2019-11-09 15:00:00 14.9 7 Oeste 22 Oeste 0 -- -- 43
2019-11-09 14:00:00 15.2 12 Noroeste 28 Noroeste 0 -- -- 42
2019-11-09 13:00:00 15.3 16 Oeste 28 Oeste 0 -- -- 42
2019-11-09 12:00:00 15.3 16 Oeste 31 Oeste 0 -- -- 40
2019-11-09 11:00:00 15.4 16 Oeste 32 Noroeste 0 -- -- 41
2019-11-09 10:00:00 14.5 10 Oeste 33 Noroeste 0 -- -- 42
2019-11-09 09:00:00 12.5 20 Noroeste 38 Oeste 0 -- -- 45
2019-11-09 08:00:00 11.9 13 Noroeste 35 Noroeste 0 -- -- 45
2019-11-09 07:00:00 12 13 Noroeste 31 Noroeste 0 -- -- 43
2019-11-09 06:00:00 12.2 15 Noroeste 37 Noroeste 0 -- -- 43
2019-11-09 05:00:00 12.3 14 Norte 45 Noroeste 0 -- -- 43
2019-11-09 04:00:00 12.3 16 Norte 63 Norte 0 -- -- 43
2019-11-09 03:00:00 12.6 20 Noroeste 49 Noroeste 0 -- -- 43
2019-11-09 02:00:00 12.8 24 Norte 58 Noroeste 0 -- -- 44
2019-11-09 01:00:00 12.7 27 Noroeste 58 Norte 0 -- -- 46
2019-11-09 00:00:00 12.2 34 Norte 63 Norte 0 -- -- 48
2019-11-08 23:00:00 12.1 17 Norte 50 Norte 0 -- -- 51
2019-11-08 22:00:00 11.3 25 Norte 45 Noroeste 0 -- -- 53
2019-11-08 21:00:00 11.3 24 Noroeste 49 Norte 0 -- -- 52
2019-11-08 20:00:00 12.1 22 Noroeste 41 Norte 0 -- -- 50
2019-11-08 19:00:00 12 16 Noroeste 34 Noroeste 0 -- -- 47
2019-11-08 18:00:00 13.1 9 Noroeste 33 Noroeste 0 -- -- 40
2019-11-08 17:00:00 15.4 16 Noroeste 37 Noroeste 0 -- -- 33
2019-11-08 16:00:00 16.5 14 Noroeste 42 Norte 0 -- -- 32
2019-11-08 15:00:00 18.3 17 Noroeste 45 Noroeste 0 -- -- 30
2019-11-08 14:00:00 18.1 22 Noroeste 37 Noroeste 0 -- -- 30
2019-11-08 13:00:00 18 14 Noroeste 38 Noroeste 0 -- -- 32
2019-11-08 12:00:00 17.7 17 Noroeste 34 Noroeste 0 -- -- 34
2019-11-08 11:00:00 15.5 14 Noroeste 28 Noroeste 0 -- -- 37
2019-11-08 10:00:00 11.9 16 Noroeste 26 Noroeste 0 -- -- 42
2019-11-08 09:00:00 11.1 6 Oeste 15 Sudoeste 0 -- -- 43
2019-11-08 08:00:00 8.8 9 Sudoeste 17 Oeste 0 -- -- 45
2019-11-08 07:00:00 9 8 Oeste 17 Oeste 0 -- -- 45
2019-11-08 06:00:00 8.6 9 Sudoeste 17 Sudoeste 0 -- -- 45
2019-11-08 05:00:00 9.8 5 Oeste 20 Noroeste 0 -- -- 44
2019-11-08 04:00:00 8.4 5 Noroeste 18 Oeste 0 -- -- 50
2019-11-08 03:00:00 10.8 12 Noroeste 30 Oeste 0 -- -- 43
2019-11-08 02:00:00 11.8 12 Oeste 29 Noroeste 0 -- -- 42
2019-11-08 01:00:00 11.9 8 Noroeste 27 Noroeste 0 -- -- 42
2019-11-08 00:00:00 12.5 15 Noroeste 34 Noroeste 0 -- -- 42